LGSM

Details ICAO LGSM (SMI)
Name SAMOS
Region Greece
Timezone Europe/Athens (UTC+3.0)
Plans Departing 640
Arriving 937
Stats Elevation 62 ft / 19 m (AMSL)
Location 37.689100° 26.912800°
Runways 1
Magnetic Variation 5.172° E
Sunrise 2021-10-21 04:27:25 UTC / 2021-10-21 07:27:25 Local
Sunset 2021-10-21 15:28:49 UTC / 2021-10-21 18:28:49 Local
Advertisement - Login to hide

Runways

ID Width Length Bearing (true/mag) Surface Threshold Overrun Markings Lighting
09 192 ft / 58 m 6,712 ft / 2,046 m 94.28° / 89.10° ASPHALT 0 ft / 0 m 0 ft / 0 m APP CENTERLINE EDGE THRESHOLD MALSF
27 192 ft / 58 m 6,712 ft / 2,046 m 274.29° / 269.12° ASPHALT 243 ft / 74 m 0 ft / 0 m APP CENTERLINE EDGE THRESHOLD MALSF

Map

Weather


0- 5 10 15 20 25 30 35+ Temperature / °C

Clouds and Precipitation
Forecast for 2021-10-21 12:00 UTC. Updated 5 hours ago

Ground ~20,000 ft ~40,000 ft Winds

METAR

LGSM 211350Z 13004KT CAVOK 21/12 Q1021

TAF

Not found

Frequencies

Recorded 127.05 MHz ATIS
Tower 129.85 MHz
Warning: Do not use this data for real-world aviation or navigation. No guarantee of current accuracy is given.